Time;durP1;ratioP1;P1;durP2;ratioP2;P2;SDS_P1;SDS_P2;PMS_P1;PMS_P2;Temp;Humidity;BMP_temperature;BMP_pressure;BME280_temperature;BME280_humidity;BME280_pressure;Samples;Min_cycle;Max_cycle;Signal;HPM_P1;HPM_P2
2022/04/03 00:01:22;;;;;;;8.55;4.72;;;;;;;;;;6182054;28;20185;-69
2022/04/03 00:04:24;;;;;;;8.27;4.53;;;;;;;;;;6186201;28;20145;-68
2022/04/03 00:07:27;;;;;;;5.78;4.40;;;;;;;;;;6181440;28;20526;-68
2022/04/03 00:10:29;;;;;;;7.05;4.53;;;;;;;;;;6184439;28;20046;-67
2022/04/03 00:13:30;;;;;;;9.05;5.13;;;;;;;;;;6179442;28;20189;-68
2022/04/03 00:16:33;;;;;;;7.03;4.10;;;;;;;;;;6178482;28;20114;-68
2022/04/03 00:19:34;;;;;;;8.60;4.32;;;;;;;;;;6177919;28;20054;-71
2022/04/03 00:22:37;;;;;;;73.82;30.70;;;;;;;;;;6176212;28;20130;-71
2022/04/03 00:25:39;;;;;;;32.10;16.70;;;;;;;;;;6187073;28;20156;-71
2022/04/03 00:28:42;;;;;;;60.88;31.90;;;;;;;;;;6188580;28;20129;-68
2022/04/03 00:31:44;;;;;;;14.23;8.90;;;;;;;;;;6186992;28;20057;-68
2022/04/03 00:34:45;;;;;;;8.32;5.32;;;;;;;;;;6188761;28;20121;-68
2022/04/03 00:37:48;;;;;;;8.52;5.00;;;;;;;;;;6181527;28;20054;-68
2022/04/03 00:40:50;;;;;;;7.43;4.93;;;;;;;;;;6188409;28;20584;-68
2022/04/03 00:43:52;;;;;;;8.80;5.03;;;;;;;;;;6184723;28;20050;-68
2022/04/03 00:46:53;;;;;;;8.80;5.32;;;;;;;;;;6184091;28;20133;-68
2022/04/03 00:49:56;;;;;;;8.27;5.35;;;;;;;;;;6183235;28;20166;-68
2022/04/03 00:52:58;;;;;;;10.07;5.60;;;;;;;;;;6181580;28;20042;-69
2022/04/03 00:56:00;;;;;;;11.68;5.47;;;;;;;;;;6180439;28;20411;-69
2022/04/03 00:59:02;;;;;;;11.30;6.28;;;;;;;;;;6180680;28;20109;-69
2022/04/03 01:02:04;;;;;;;11.40;6.43;;;;;;;;;;6184599;28;20046;-70
2022/04/03 01:05:07;;;;;;;12.25;7.00;;;;;;;;;;6183511;28;20364;-69
2022/04/03 01:08:10;;;;;;;13.48;7.30;;;;;;;;;;6189207;28;20062;-69
2022/04/03 01:11:13;;;;;;;13.13;6.47;;;;;;;;;;6185820;28;20066;-69
2022/04/03 01:14:15;;;;;;;12.73;6.70;;;;;;;;;;6184417;28;20050;-70
2022/04/03 01:17:16;;;;;;;11.95;6.97;;;;;;;;;;6183589;28;20419;-68
2022/04/03 01:20:18;;;;;;;13.45;7.97;;;;;;;;;;6183367;28;20593;-69
2022/04/03 01:23:22;;;;;;;11.85;7.47;;;;;;;;;;6184366;28;20359;-69
2022/04/03 01:26:25;;;;;;;10.90;8.57;;;;;;;;;;6184820;28;20190;-68
2022/04/03 01:29:27;;;;;;;10.82;7.45;;;;;;;;;;6182218;28;21273;-68
2022/04/03 01:32:28;;;;;;;10.88;7.80;;;;;;;;;;6183429;28;20058;-70
2022/04/03 01:35:30;;;;;;;14.63;8.07;;;;;;;;;;6187143;28;20074;-67
2022/04/03 01:38:32;;;;;;;15.23;8.98;;;;;;;;;;6185345;28;20137;-68
2022/04/03 01:41:35;;;;;;;15.68;9.50;;;;;;;;;;6184549;28;20520;-67
2022/04/03 01:44:37;;;;;;;20.83;9.63;;;;;;;;;;6184805;28;20128;-67
2022/04/03 01:47:39;;;;;;;17.55;10.90;;;;;;;;;;6186923;28;20162;-68
2022/04/03 01:50:41;;;;;;;17.60;9.88;;;;;;;;;;6183758;28;20059;-68
2022/04/03 01:53:43;;;;;;;20.95;9.52;;;;;;;;;;6186084;28;20062;-68
2022/04/03 01:56:46;;;;;;;15.32;9.27;;;;;;;;;;6184585;28;20453;-68
2022/04/03 01:59:47;;;;;;;22.17;10.63;;;;;;;;;;6183261;28;20568;-69
2022/04/03 02:02:50;;;;;;;22.35;11.05;;;;;;;;;;6176828;28;20051;-70
2022/04/03 02:05:52;;;;;;;18.27;9.63;;;;;;;;;;6186660;28;20051;-70
2022/04/03 02:08:54;;;;;;;19.30;9.90;;;;;;;;;;6182368;28;20141;-68
2022/04/03 02:11:57;;;;;;;14.38;8.85;;;;;;;;;;6184565;28;20054;-69
2022/04/03 02:14:59;;;;;;;15.07;9.73;;;;;;;;;;6188789;28;20073;-69
2022/04/03 02:18:01;;;;;;;17.27;9.75;;;;;;;;;;6174011;28;20557;-69
2022/04/03 02:21:03;;;;;;;16.83;9.75;;;;;;;;;;6181718;28;20112;-69
2022/04/03 02:24:05;;;;;;;18.88;11.23;;;;;;;;;;6184405;28;20047;-69
2022/04/03 02:27:08;;;;;;;26.70;14.70;;;;;;;;;;6183071;28;20185;-69
2022/04/03 02:30:10;;;;;;;24.42;14.20;;;;;;;;;;6179888;28;20141;-69
2022/04/03 02:33:12;;;;;;;28.00;15.02;;;;;;;;;;6183966;28;20055;-69
2022/04/03 02:36:13;;;;;;;30.38;14.55;;;;;;;;;;6184512;28;20043;-69
2022/04/03 02:39:15;;;;;;;24.35;13.15;;;;;;;;;;6185254;28;20133;-69
2022/04/03 02:42:18;;;;;;;21.48;13.02;;;;;;;;;;6185062;28;20082;-69
2022/04/03 02:45:20;;;;;;;26.15;13.23;;;;;;;;;;6181131;28;20782;-69
2022/04/03 02:48:22;;;;;;;30.08;14.23;;;;;;;;;;6182403;28;20109;-69
2022/04/03 02:51:24;;;;;;;22.00;11.77;;;;;;;;;;6180150;28;20128;-69
2022/04/03 02:54:25;;;;;;;24.40;13.18;;;;;;;;;;6177277;28;20046;-68
2022/04/03 02:57:28;;;;;;;24.75;12.93;;;;;;;;;;6179304;28;20129;-69
2022/04/03 03:00:32;;;;;;;23.48;12.93;;;;;;;;;;6182598;28;20176;-68
2022/04/03 03:03:33;;;;;;;25.30;12.98;;;;;;;;;;6177980;28;20454;-68
2022/04/03 03:06:35;;;;;;;22.15;11.95;;;;;;;;;;6180873;28;20441;-69
2022/04/03 03:09:37;;;;;;;22.75;12.15;;;;;;;;;;6183656;28;20494;-69
2022/04/03 03:12:40;;;;;;;25.55;13.40;;;;;;;;;;6190016;28;20124;-69
2022/04/03 03:15:41;;;;;;;21.67;12.38;;;;;;;;;;6179958;28;20562;-68
2022/04/03 03:18:43;;;;;;;21.38;11.48;;;;;;;;;;6183427;28;20073;-69
2022/04/03 03:21:44;;;;;;;21.75;11.15;;;;;;;;;;6184757;28;20185;-69
2022/04/03 03:24:46;;;;;;;23.08;12.07;;;;;;;;;;6185934;28;20165;-68
2022/04/03 03:27:49;;;;;;;16.38;10.25;;;;;;;;;;6185213;28;20134;-68
2022/04/03 03:30:51;;;;;;;16.30;9.32;;;;;;;;;;6190674;28;20058;-68
2022/04/03 03:33:52;;;;;;;17.13;9.13;;;;;;;;;;6184982;28;20143;-68
2022/04/03 03:36:55;;;;;;;13.80;8.50;;;;;;;;;;6184424;28;20170;-67
2022/04/03 03:39:57;;;;;;;16.35;8.80;;;;;;;;;;6180100;28;20043;-68
2022/04/03 03:43:00;;;;;;;13.82;9.07;;;;;;;;;;6182522;28;20059;-67
2022/04/03 03:46:02;;;;;;;14.88;9.65;;;;;;;;;;6183678;28;20680;-68
2022/04/03 03:49:03;;;;;;;12.40;8.50;;;;;;;;;;6181279;28;20111;-68
2022/04/03 03:52:05;;;;;;;12.25;7.22;;;;;;;;;;6185001;28;20119;-68
2022/04/03 03:55:08;;;;;;;13.15;6.65;;;;;;;;;;6179945;28;20117;-68
2022/04/03 03:58:11;;;;;;;10.68;6.40;;;;;;;;;;6185433;28;20082;-69
2022/04/03 04:01:13;;;;;;;13.07;6.93;;;;;;;;;;6186038;28;20050;-69
2022/04/03 04:04:15;;;;;;;11.10;7.72;;;;;;;;;;6187829;28;20058;-68
2022/04/03 04:07:16;;;;;;;10.75;6.88;;;;;;;;;;6185610;28;20205;-69
2022/04/03 04:10:18;;;;;;;10.80;7.18;;;;;;;;;;6188650;28;20208;-68
2022/04/03 04:13:22;;;;;;;8.77;6.70;;;;;;;;;;6187759;28;20070;-68
2022/04/03 04:16:23;;;;;;;9.38;5.88;;;;;;;;;;6185361;28;20050;-69
2022/04/03 04:19:25;;;;;;;9.18;5.80;;;;;;;;;;6180748;28;20043;-68
2022/04/03 04:22:27;;;;;;;9.65;6.28;;;;;;;;;;6186132;28;20047;-68
2022/04/03 04:25:28;;;;;;;10.13;5.68;;;;;;;;;;6183731;28;20047;-68
2022/04/03 04:28:31;;;;;;;8.98;5.60;;;;;;;;;;6190733;28;20077;-69
2022/04/03 04:31:33;;;;;;;8.70;6.30;;;;;;;;;;6188325;28;20437;-68
2022/04/03 04:34:35;;;;;;;9.57;5.68;;;;;;;;;;6194412;28;20125;-68
2022/04/03 04:37:36;;;;;;;6.93;5.07;;;;;;;;;;6193007;28;20047;-69
2022/04/03 04:40:38;;;;;;;11.13;6.20;;;;;;;;;;6189077;28;20054;-68
2022/04/03 04:43:42;;;;;;;10.50;6.25;;;;;;;;;;6191070;28;20426;-67
2022/04/03 04:46:44;;;;;;;9.75;6.45;;;;;;;;;;6188118;28;20050;-66
2022/04/03 04:49:46;;;;;;;10.70;6.97;;;;;;;;;;6180635;28;20049;-68
2022/04/03 04:52:48;;;;;;;9.77;6.63;;;;;;;;;;6183064;28;20443;-67
2022/04/03 04:55:50;;;;;;;11.65;6.72;;;;;;;;;;6187662;28;20046;-68
2022/04/03 04:58:53;;;;;;;7.65;6.18;;;;;;;;;;6185200;28;20051;-68
2022/04/03 05:01:56;;;;;;;12.35;6.18;;;;;;;;;;6184604;28;20050;-68
2022/04/03 05:04:58;;;;;;;9.48;6.22;;;;;;;;;;6180121;28;20050;-68
2022/04/03 05:08:00;;;;;;;11.43;6.22;;;;;;;;;;6181057;28;20051;-68
2022/04/03 05:11:02;;;;;;;9.13;6.40;;;;;;;;;;6180737;28;20051;-68
2022/04/03 05:14:06;;;;;;;9.38;6.72;;;;;;;;;;6184574;28;20053;-69
2022/04/03 05:17:08;;;;;;;12.65;6.05;;;;;;;;;;6187677;28;20080;-68
2022/04/03 05:20:11;;;;;;;11.77;6.30;;;;;;;;;;6191900;28;20054;-69
2022/04/03 05:23:12;;;;;;;7.40;5.78;;;;;;;;;;6180955;28;20051;-68
2022/04/03 05:26:15;;;;;;;7.53;5.88;;;;;;;;;;6184271;28;20059;-68
2022/04/03 05:29:18;;;;;;;9.27;6.53;;;;;;;;;;6187390;28;20057;-69
2022/04/03 05:32:26;;;;;;;10.38;6.20;;;;;;;;;;6182101;28;20522;-68
2022/04/03 05:35:27;;;;;;;10.18;6.05;;;;;;;;;;6177519;28;20047;-69
2022/04/03 05:38:29;;;;;;;8.27;5.30;;;;;;;;;;6205850;28;20128;-69
2022/04/03 05:41:31;;;;;;;9.70;5.57;;;;;;;;;;6205499;28;20165;-67
2022/04/03 05:44:35;;;;;;;10.38;6.63;;;;;;;;;;6210451;28;20089;-69
2022/04/03 05:47:36;;;;;;;9.52;6.00;;;;;;;;;;6200495;28;20046;-68
2022/04/03 05:50:38;;;;;;;7.47;5.38;;;;;;;;;;6202171;28;20165;-68
2022/04/03 05:53:41;;;;;;;7.43;5.75;;;;;;;;;;6202025;28;20038;-68
2022/04/03 05:56:42;;;;;;;8.68;5.22;;;;;;;;;;6214044;28;20053;-67
2022/04/03 05:59:45;;;;;;;7.78;5.30;;;;;;;;;;6205451;28;20042;-67
2022/04/03 06:02:48;;;;;;;9.35;5.30;;;;;;;;;;6216553;28;20129;-67
2022/04/03 06:05:51;;;;;;;7.72;5.15;;;;;;;;;;6209662;28;20050;-69
2022/04/03 06:08:52;;;;;;;8.77;4.53;;;;;;;;;;6212062;28;20053;-68
2022/04/03 06:11:54;;;;;;;6.47;4.43;;;;;;;;;;6208701;28;20090;-68
2022/04/03 06:14:57;;;;;;;6.45;4.15;;;;;;;;;;6212958;28;20046;-68
2022/04/03 06:17:58;;;;;;;5.85;4.18;;;;;;;;;;6206199;28;20129;-68
2022/04/03 06:21:00;;;;;;;5.90;3.95;;;;;;;;;;6201703;28;20192;-69
2022/04/03 06:24:01;;;;;;;6.35;3.88;;;;;;;;;;6202231;28;20078;-70
2022/04/03 06:27:03;;;;;;;7.18;4.47;;;;;;;;;;6203746;28;20050;-68
2022/04/03 06:30:08;;;;;;;5.85;4.03;;;;;;;;;;6209742;28;20053;-71
2022/04/03 06:33:10;;;;;;;5.45;4.10;;;;;;;;;;6212311;28;20414;-70
2022/04/03 06:36:11;;;;;;;8.02;4.40;;;;;;;;;;6211965;28;20172;-71
2022/04/03 06:39:13;;;;;;;5.18;3.70;;;;;;;;;;6209538;28;20116;-71
2022/04/03 06:42:14;;;;;;;6.47;3.80;;;;;;;;;;6204731;28;20050;-70
2022/04/03 06:45:18;;;;;;;5.72;3.63;;;;;;;;;;6213101;28;20132;-70
2022/04/03 06:48:19;;;;;;;5.93;3.77;;;;;;;;;;6209699;28;20049;-70
2022/04/03 06:51:21;;;;;;;4.68;3.67;;;;;;;;;;6212626;28;20078;-69
2022/04/03 06:54:23;;;;;;;6.45;4.15;;;;;;;;;;6202949;28;20394;-70
2022/04/03 06:57:24;;;;;;;7.00;4.15;;;;;;;;;;6208682;28;20498;-70
2022/04/03 07:00:27;;;;;;;7.72;4.20;;;;;;;;;;6207422;28;20092;-70
2022/04/03 07:03:31;;;;;;;5.43;4.03;;;;;;;;;;6190889;28;20056;-71
2022/04/03 07:06:33;;;;;;;7.50;4.15;;;;;;;;;;6214510;28;20112;-70
2022/04/03 07:09:39;;;;;;;5.57;3.88;;;;;;;;;;6212143;28;20152;-70
2022/04/03 07:12:40;;;;;;;5.30;3.80;;;;;;;;;;6210593;28;20136;-70
2022/04/03 07:15:44;;;;;;;5.50;3.92;;;;;;;;;;6216330;28;20192;-70
2022/04/03 07:18:45;;;;;;;5.30;3.90;;;;;;;;;;6211355;28;20042;-70
2022/04/03 07:21:47;;;;;;;8.70;3.88;;;;;;;;;;6205428;28;20593;-71
2022/04/03 07:24:49;;;;;;;5.43;3.63;;;;;;;;;;6209380;28;20105;-71
2022/04/03 07:27:50;;;;;;;7.43;4.20;;;;;;;;;;6208501;28;20133;-71
2022/04/03 07:30:53;;;;;;;6.25;3.97;;;;;;;;;;6208721;28;20076;-71
2022/04/03 07:33:55;;;;;;;7.05;3.53;;;;;;;;;;6209256;28;20073;-71
2022/04/03 07:36:57;;;;;;;7.38;4.10;;;;;;;;;;6213874;28;20045;-70
2022/04/03 07:39:59;;;;;;;9.77;4.05;;;;;;;;;;6213303;28;20057;-71
2022/04/03 07:43:01;;;;;;;6.05;4.60;;;;;;;;;;6213013;28;20073;-71
2022/04/03 07:46:03;;;;;;;6.82;4.93;;;;;;;;;;6215416;28;20050;-71
2022/04/03 07:49:05;;;;;;;5.07;4.15;;;;;;;;;;6213896;28;20113;-72
2022/04/03 07:52:07;;;;;;;8.07;4.60;;;;;;;;;;6212705;28;20506;-71
2022/04/03 07:55:11;;;;;;;6.63;4.03;;;;;;;;;;6212187;28;20201;-71
2022/04/03 07:58:12;;;;;;;6.80;5.27;;;;;;;;;;6215299;28;20038;-71
2022/04/03 08:01:15;;;;;;;7.13;5.63;;;;;;;;;;6215908;28;20129;-71
2022/04/03 08:04:17;;;;;;;7.90;5.18;;;;;;;;;;6207618;28;20511;-69
2022/04/03 08:07:19;;;;;;;5.95;4.85;;;;;;;;;;6213451;28;20451;-70
2022/04/03 08:10:20;;;;;;;8.60;5.43;;;;;;;;;;6215309;28;20480;-70
2022/04/03 08:13:22;;;;;;;9.23;5.25;;;;;;;;;;6216780;28;20058;-70
2022/04/03 08:16:25;;;;;;;6.88;4.63;;;;;;;;;;6214343;28;20042;-69
2022/04/03 08:19:26;;;;;;;6.07;4.35;;;;;;;;;;6214325;28;20180;-69
2022/04/03 08:22:28;;;;;;;6.57;4.40;;;;;;;;;;6215781;28;20086;-69
2022/04/03 08:25:31;;;;;;;5.68;3.95;;;;;;;;;;6211812;28;20410;-69
2022/04/03 08:28:32;;;;;;;8.88;4.43;;;;;;;;;;6208605;28;20060;-68
2022/04/03 08:31:35;;;;;;;6.22;4.18;;;;;;;;;;6212715;28;20523;-68
2022/04/03 08:34:37;;;;;;;5.80;3.95;;;;;;;;;;6208428;28;20098;-68
2022/04/03 08:37:39;;;;;;;9.98;3.92;;;;;;;;;;6213579;28;20052;-69
2022/04/03 08:40:43;;;;;;;6.43;4.05;;;;;;;;;;6211383;28;20104;-69
2022/04/03 08:43:47;;;;;;;7.13;4.25;;;;;;;;;;6209985;28;20701;-69
2022/04/03 08:46:50;;;;;;;7.27;4.27;;;;;;;;;;6210367;28;20079;-69
2022/04/03 08:49:53;;;;;;;7.47;4.30;;;;;;;;;;6214115;28;20518;-70
2022/04/03 08:52:55;;;;;;;6.90;4.30;;;;;;;;;;6212230;28;20054;-69
2022/04/03 08:55:57;;;;;;;5.20;3.88;;;;;;;;;;6207696;28;20046;-67
2022/04/03 08:58:59;;;;;;;5.97;4.03;;;;;;;;;;6207972;28;20131;-70
2022/04/03 09:02:02;;;;;;;4.82;3.60;;;;;;;;;;6212215;28;20042;-69
2022/04/03 09:05:05;;;;;;;7.63;4.13;;;;;;;;;;6210433;28;20071;-69
2022/04/03 09:08:08;;;;;;;6.13;4.28;;;;;;;;;;6206913;28;20058;-69
2022/04/03 09:11:09;;;;;;;6.60;4.55;;;;;;;;;;6209194;28;20159;-69
2022/04/03 09:14:12;;;;;;;7.90;4.25;;;;;;;;;;6210940;28;20133;-69
2022/04/03 09:17:32;;;;;;;8.25;5.07;;;;;;;;;;6210256;28;20049;-69
2022/04/03 09:20:36;;;;;;;6.20;4.30;;;;;;;;;;6204625;28;20053;-69
2022/04/03 09:23:56;;;;;;;7.22;4.68;;;;;;;;;;6205646;28;20184;-69
2022/04/03 09:26:58;;;;;;;6.55;4.70;;;;;;;;;;6208015;28;20050;-70
2022/04/03 09:30:05;;;;;;;6.88;4.25;;;;;;;;;;6212523;28;20053;-70
2022/04/03 09:33:10;;;;;;;8.07;4.68;;;;;;;;;;6213071;28;20140;-69
2022/04/03 09:36:12;;;;;;;6.68;4.50;;;;;;;;;;6213589;28;20050;-69
2022/04/03 09:39:16;;;;;;;7.10;4.65;;;;;;;;;;6210310;28;20046;-69
2022/04/03 09:42:18;;;;;;;7.82;5.00;;;;;;;;;;6212047;28;20053;-70
2022/04/03 09:45:25;;;;;;;7.55;4.95;;;;;;;;;;6211718;28;20178;-69
2022/04/03 09:48:31;;;;;;;8.02;4.82;;;;;;;;;;6208923;28;20050;-69
2022/04/03 09:51:34;;;;;;;7.20;5.22;;;;;;;;;;6213986;28;20128;-70
2022/04/03 09:54:35;;;;;;;7.37;5.30;;;;;;;;;;6211691;28;20045;-70
2022/04/03 09:57:37;;;;;;;7.70;5.18;;;;;;;;;;6209076;28;20117;-69
2022/04/03 10:00:41;;;;;;;6.60;5.03;;;;;;;;;;6207226;28;20072;-69
2022/04/03 10:03:44;;;;;;;8.00;5.20;;;;;;;;;;6212758;28;20076;-69
2022/04/03 10:06:45;;;;;;;6.10;4.80;;;;;;;;;;6211498;28;20188;-69
2022/04/03 10:09:51;;;;;;;5.22;4.45;;;;;;;;;;6216943;28;20060;-70
2022/04/03 10:12:52;;;;;;;6.65;5.00;;;;;;;;;;6211570;28;20464;-71
2022/04/03 10:15:54;;;;;;;7.72;4.63;;;;;;;;;;6210794;28;20049;-68
2022/04/03 10:19:05;;;;;;;6.72;4.72;;;;;;;;;;6273689;27;20714;-70
2022/04/03 10:22:10;;;;;;;6.05;5.13;;;;;;;;;;6249439;28;20172;-70
2022/04/03 10:25:14;;;;;;;5.30;4.40;;;;;;;;;;6235555;28;20046;-70
2022/04/03 10:28:18;;;;;;;5.95;4.55;;;;;;;;;;6223076;28;20076;-69
2022/04/03 10:31:21;;;;;;;5.78;4.45;;;;;;;;;;6233030;28;20054;-71
2022/04/03 10:34:24;;;;;;;6.45;4.65;;;;;;;;;;6236556;28;20084;-70
2022/04/03 10:37:28;;;;;;;5.90;4.68;;;;;;;;;;6226505;28;20041;-70
2022/04/03 10:40:32;;;;;;;5.80;3.97;;;;;;;;;;6235607;28;20054;-70
2022/04/03 10:43:39;;;;;;;4.85;4.30;;;;;;;;;;6242341;28;20054;-69
2022/04/03 10:47:17;;;;;;;5.57;3.95;;;;;;;;;;6232010;28;20125;-70
2022/04/03 10:50:20;;;;;;;5.60;3.97;;;;;;;;;;6220970;28;20046;-69
2022/04/03 10:53:25;;;;;;;5.57;4.05;;;;;;;;;;6228659;28;20687;-71
2022/04/03 10:56:28;;;;;;;8.57;4.68;;;;;;;;;;6226703;28;20465;-67
2022/04/03 10:59:31;;;;;;;7.53;5.07;;;;;;;;;;6228309;28;20042;-67
2022/04/03 11:02:33;;;;;;;5.57;4.03;;;;;;;;;;6223967;28;20168;-68
2022/04/03 11:05:43;;;;;;;6.82;5.18;;;;;;;;;;6224206;28;20631;-67
2022/04/03 11:08:55;;;;;;;5.15;4.13;;;;;;;;;;6227113;28;20061;-67
2022/04/03 11:11:59;;;;;;;5.07;4.20;;;;;;;;;;6230228;28;20050;-67
2022/04/03 11:15:01;;;;;;;5.72;4.00;;;;;;;;;;6229611;28;20081;-69
2022/04/03 11:18:26;;;;;;;4.50;3.67;;;;;;;;;;6231190;28;20061;-68
2022/04/03 11:21:31;;;;;;;6.32;4.60;;;;;;;;;;6228849;28;20168;-68
2022/04/03 11:24:36;;;;;;;7.07;4.88;;;;;;;;;;6232738;28;20045;-68
2022/04/03 11:27:38;;;;;;;5.10;4.03;;;;;;;;;;6228693;28;20580;-68
2022/04/03 11:30:41;;;;;;;5.63;3.67;;;;;;;;;;6218136;28;20401;-68
2022/04/03 11:33:42;;;;;;;6.07;3.85;;;;;;;;;;6213868;28;20440;-68
2022/04/03 11:36:45;;;;;;;4.38;3.47;;;;;;;;;;6213806;28;20082;-68
2022/04/03 11:39:47;;;;;;;3.80;3.33;;;;;;;;;;6215330;28;20569;-68
2022/04/03 11:42:49;;;;;;;3.80;3.13;;;;;;;;;;6213914;28;20183;-68
2022/04/03 11:45:55;;;;;;;3.17;2.63;;;;;;;;;;6213067;28;20761;-68
2022/04/03 11:48:57;;;;;;;5.13;3.75;;;;;;;;;;6212878;28;20049;-69
2022/04/03 11:52:06;;;;;;;4.10;2.80;;;;;;;;;;6215976;28;20050;-67
2022/04/03 11:55:10;;;;;;;3.38;2.92;;;;;;;;;;6211837;28;20560;-68
2022/04/03 11:58:12;;;;;;;4.43;2.97;;;;;;;;;;6210299;28;20041;-67
2022/04/03 12:01:14;;;;;;;4.03;2.90;;;;;;;;;;6212773;28;20131;-68
2022/04/03 12:04:15;;;;;;;8.75;2.97;;;;;;;;;;6208888;28;20199;-68
2022/04/03 12:07:18;;;;;;;4.75;3.13;;;;;;;;;;6210567;28;20057;-68
2022/04/03 12:10:24;;;;;;;4.20;3.30;;;;;;;;;;6207428;28;20080;-69
2022/04/03 12:13:26;;;;;;;6.03;3.17;;;;;;;;;;6201690;28;20042;-69
2022/04/03 12:16:28;;;;;;;4.13;2.85;;;;;;;;;;6211437;28;20062;-68
2022/04/03 12:19:31;;;;;;;5.05;3.63;;;;;;;;;;6211283;28;20050;-68
2022/04/03 12:22:34;;;;;;;3.67;2.80;;;;;;;;;;6211511;28;20492;-69
2022/04/03 12:25:35;;;;;;;4.50;3.13;;;;;;;;;;6211243;28;20108;-70
2022/04/03 12:28:37;;;;;;;6.75;3.35;;;;;;;;;;6209658;28;20502;-69
2022/04/03 12:31:40;;;;;;;5.13;3.35;;;;;;;;;;6210732;28;20671;-68
2022/04/03 12:34:42;;;;;;;4.20;2.78;;;;;;;;;;6210587;28;20050;-67
2022/04/03 12:37:45;;;;;;;3.72;3.35;;;;;;;;;;6211501;28;20084;-67
2022/04/03 12:40:48;;;;;;;4.53;3.58;;;;;;;;;;6212823;28;20132;-68
2022/04/03 12:43:50;;;;;;;4.30;3.65;;;;;;;;;;6211732;28;20057;-68
2022/04/03 12:46:52;;;;;;;4.05;3.65;;;;;;;;;;6209614;28;20576;-68
2022/04/03 12:50:10;;;;;;;4.63;3.88;;;;;;;;;;6211029;28;20132;-66
2022/04/03 12:53:15;;;;;;;4.13;3.20;;;;;;;;;;6211389;28;20046;-69
2022/04/03 12:59:47;;;;;;;4.18;3.33;;;;;;;;;;6214244;28;20630;-67
2022/04/03 13:02:49;;;;;;;4.88;3.45;;;;;;;;;;6211929;28;20189;-68
2022/04/03 13:05:54;;;;;;;4.40;3.70;;;;;;;;;;6212934;28;20056;-67
2022/04/03 13:09:04;;;;;;;5.95;3.72;;;;;;;;;;6208462;28;20061;-67
2022/04/03 13:12:07;;;;;;;5.90;4.13;;;;;;;;;;6211133;28;20061;-67
2022/04/03 13:15:09;;;;;;;4.85;4.35;;;;;;;;;;6212414;28;20180;-66
2022/04/03 13:18:11;;;;;;;4.63;3.50;;;;;;;;;;6210856;28;20573;-66
2022/04/03 13:21:19;;;;;;;3.88;3.47;;;;;;;;;;6208817;28;20250;-67
2022/04/03 13:24:23;;;;;;;4.57;3.10;;;;;;;;;;6207092;28;20086;-66
2022/04/03 13:27:24;;;;;;;3.25;2.58;;;;;;;;;;6211816;28;20405;-67
2022/04/03 13:30:26;;;;;;;4.35;2.92;;;;;;;;;;6212060;28;20050;-67
2022/04/03 13:33:28;;;;;;;2.85;2.45;;;;;;;;;;6208204;28;20093;-68
2022/04/03 13:36:31;;;;;;;3.38;2.00;;;;;;;;;;6208306;28;20121;-67
2022/04/03 13:39:34;;;;;;;2.63;2.17;;;;;;;;;;6205372;28;20057;-68
2022/04/03 13:42:35;;;;;;;3.07;2.07;;;;;;;;;;6208418;28;20046;-68
2022/04/03 13:48:56;;;;;;;2.45;2.00;;;;;;;;;;6203218;28;20050;-67
2022/04/03 13:51:58;;;;;;;3.70;2.00;;;;;;;;;;6210699;28;20119;-68
2022/04/03 13:55:01;;;;;;;2.88;2.28;;;;;;;;;;6208658;28;20061;-68
2022/04/03 13:58:02;;;;;;;3.47;2.50;;;;;;;;;;6201030;28;20046;-69
2022/04/03 14:01:05;;;;;;;3.20;2.40;;;;;;;;;;6208013;28;20052;-70
2022/04/03 14:04:08;;;;;;;3.70;3.00;;;;;;;;;;6207615;28;20371;-68
2022/04/03 14:07:09;;;;;;;9.38;3.35;;;;;;;;;;6202438;28;20274;-68
2022/04/03 14:10:13;;;;;;;3.55;2.40;;;;;;;;;;6200795;28;20107;-68
2022/04/03 14:13:14;;;;;;;5.38;3.45;;;;;;;;;;6208835;28;20045;-69
2022/04/03 14:16:16;;;;;;;4.32;3.10;;;;;;;;;;6207000;28;20490;-67
2022/04/03 14:19:18;;;;;;;3.53;2.97;;;;;;;;;;6202963;28;20058;-68
2022/04/03 14:22:21;;;;;;;5.13;3.47;;;;;;;;;;6200809;28;20058;-68
2022/04/03 14:25:24;;;;;;;5.30;3.58;;;;;;;;;;6205519;28;20046;-68
2022/04/03 14:28:25;;;;;;;4.15;3.53;;;;;;;;;;6201317;28;20096;-68
2022/04/03 14:31:27;;;;;;;5.07;2.65;;;;;;;;;;6206018;28;20050;-68
2022/04/03 14:34:30;;;;;;;3.85;3.13;;;;;;;;;;6206848;28;20042;-68
2022/04/03 14:37:32;;;;;;;3.10;2.80;;;;;;;;;;6202810;28;20445;-75
2022/04/03 14:40:34;;;;;;;4.80;2.92;;;;;;;;;;6201116;28;20105;-69
2022/04/03 14:43:36;;;;;;;4.80;2.70;;;;;;;;;;6203008;28;20670;-68
2022/04/03 14:46:38;;;;;;;4.88;2.80;;;;;;;;;;6198313;28;20137;-69
2022/04/03 14:49:39;;;;;;;3.38;2.67;;;;;;;;;;6199116;28;20198;-69
2022/04/03 14:52:42;;;;;;;4.40;2.45;;;;;;;;;;6209028;28;20500;-68
2022/04/03 14:55:47;;;;;;;4.90;2.80;;;;;;;;;;6205524;28;20423;-67
2022/04/03 14:58:51;;;;;;;5.90;2.97;;;;;;;;;;6207898;28;20074;-69
2022/04/03 15:01:52;;;;;;;;;;;;;;;;;;6205735;28;20061;-69
2022/04/03 15:04:57;;;;;;;4.45;3.15;;;;;;;;;;6220900;28;19921;-68
2022/04/03 15:07:59;;;;;;;4.50;3.05;;;;;;;;;;6210228;28;20053;-69
2022/04/03 15:11:06;;;;;;;5.47;3.30;;;;;;;;;;6205603;28;20053;-68
2022/04/03 15:14:09;;;;;;;3.50;2.65;;;;;;;;;;6211100;28;20144;-69
2022/04/03 15:17:11;;;;;;;3.42;2.15;;;;;;;;;;6207623;28;20096;-69
2022/04/03 15:20:12;;;;;;;3.38;2.50;;;;;;;;;;6209913;28;20140;-69
2022/04/03 15:23:16;;;;;;;3.35;2.33;;;;;;;;;;6206461;28;20132;-68
2022/04/03 15:26:20;;;;;;;2.72;2.53;;;;;;;;;;6210977;28;20053;-69
2022/04/03 15:29:22;;;;;;;7.60;4.00;;;;;;;;;;6209039;28;20061;-67
2022/04/03 15:32:25;;;;;;;8.18;5.28;;;;;;;;;;6209528;28;20054;-67
2022/04/03 15:35:29;;;;;;;6.67;4.53;;;;;;;;;;6215071;28;20058;-69
2022/04/03 15:38:32;;;;;;;6.45;5.30;;;;;;;;;;6212492;28;20054;-68
2022/04/03 15:41:35;;;;;;;5.40;4.20;;;;;;;;;;6220999;28;20072;-67
2022/04/03 15:44:39;;;;;;;5.75;4.18;;;;;;;;;;6211501;28;20111;-66
2022/04/03 15:47:42;;;;;;;;;;;;;;;;;;6206939;28;20085;-68
2022/04/03 15:50:44;;;;;;;5.78;4.57;;;;;;;;;;6209736;28;19944;-68
2022/04/03 15:53:46;;;;;;;7.20;5.22;;;;;;;;;;6217315;28;20116;-68
2022/04/03 15:56:49;;;;;;;6.43;5.00;;;;;;;;;;6207655;28;20112;-68
2022/04/03 15:59:51;;;;;;;8.00;5.50;;;;;;;;;;6212020;28;20261;-68
2022/04/03 16:02:52;;;;;;;7.57;5.13;;;;;;;;;;6213128;28;20052;-68
2022/04/03 16:05:54;;;;;;;6.80;4.75;;;;;;;;;;6210601;28;20042;-68
2022/04/03 16:08:56;;;;;;;6.00;5.30;;;;;;;;;;6211651;28;20058;-69
2022/04/03 16:11:58;;;;;;;7.00;5.22;;;;;;;;;;6211539;28;20093;-69
2022/04/03 16:15:00;;;;;;;5.40;4.75;;;;;;;;;;6214810;28;20109;-70
2022/04/03 16:18:04;;;;;;;6.25;5.20;;;;;;;;;;6213850;28;20068;-67
2022/04/03 16:21:06;;;;;;;6.20;5.20;;;;;;;;;;6209481;28;20069;-68
2022/04/03 16:24:08;;;;;;;6.95;4.78;;;;;;;;;;6211089;28;20084;-70
2022/04/03 16:27:11;;;;;;;6.30;4.80;;;;;;;;;;6210603;28;20108;-68
2022/04/03 16:30:13;;;;;;;5.45;4.28;;;;;;;;;;6208803;28;20134;-68
2022/04/03 16:33:15;;;;;;;7.13;4.82;;;;;;;;;;6209531;28;20105;-68
2022/04/03 16:36:16;;;;;;;7.07;4.35;;;;;;;;;;6210581;28;20096;-69
2022/04/03 16:47:48;;;;;;;4.38;3.00;;;;;;;;;;6212364;28;20125;-71
2022/04/03 16:50:52;;;;;;;14.32;3.58;;;;;;;;;;6209409;28;20586;-68
2022/04/03 16:53:53;;;;;;;3.73;3.10;;;;;;;;;;6210440;28;20236;-69
2022/04/03 16:56:55;;;;;;;3.50;2.60;;;;;;;;;;6212396;28;20469;-69
2022/04/03 16:59:57;;;;;;;4.35;2.50;;;;;;;;;;6209802;28;20051;-69
2022/04/03 17:02:59;;;;;;;4.10;2.80;;;;;;;;;;6206947;28;20054;-69
2022/04/03 17:06:02;;;;;;;4.63;2.90;;;;;;;;;;6207893;28;20050;-69
2022/04/03 17:09:04;;;;;;;6.90;3.75;;;;;;;;;;6206091;28;20056;-68
2022/04/03 17:12:07;;;;;;;5.38;4.10;;;;;;;;;;6205562;28;20074;-68
2022/04/03 17:15:11;;;;;;;8.02;4.68;;;;;;;;;;6209238;28;20137;-68
2022/04/03 17:18:14;;;;;;;5.05;4.50;;;;;;;;;;6207051;28;20086;-69
2022/04/03 17:21:17;;;;;;;6.78;4.70;;;;;;;;;;6207295;28;20068;-68
2022/04/03 17:24:19;;;;;;;5.93;4.65;;;;;;;;;;6208856;28;20406;-72
2022/04/03 17:27:20;;;;;;;6.45;4.85;;;;;;;;;;6209132;28;20091;-73
2022/04/03 17:30:22;;;;;;;5.95;4.82;;;;;;;;;;6212140;28;20053;-69
2022/04/03 17:33:24;;;;;;;7.38;5.10;;;;;;;;;;6210403;28;20050;-69
2022/04/03 17:36:27;;;;;;;6.20;4.93;;;;;;;;;;6205607;28;20133;-69
2022/04/03 17:39:28;;;;;;;5.93;4.90;;;;;;;;;;6206336;28;20149;-69
2022/04/03 17:42:31;;;;;;;6.00;4.78;;;;;;;;;;6205829;28;20435;-69
2022/04/03 17:45:32;;;;;;;5.97;5.00;;;;;;;;;;6204856;28;20196;-69
2022/04/03 17:48:34;;;;;;;6.30;5.00;;;;;;;;;;6205241;28;20478;-71
2022/04/03 17:51:36;;;;;;;9.00;4.95;;;;;;;;;;6206648;28;20041;-69
2022/04/03 17:54:38;;;;;;;5.20;4.53;;;;;;;;;;6212148;28;20050;-70
2022/04/03 17:57:40;;;;;;;4.95;4.45;;;;;;;;;;6208750;28;20137;-69
2022/04/03 18:00:41;;;;;;;6.05;4.40;;;;;;;;;;6202287;28;20052;-70
2022/04/03 18:03:43;;;;;;;5.05;4.43;;;;;;;;;;6206004;28;20132;-70
2022/04/03 18:06:46;;;;;;;6.53;5.20;;;;;;;;;;6201840;28;20181;-71
2022/04/03 18:09:48;;;;;;;6.68;4.65;;;;;;;;;;6198379;28;20111;-69
2022/04/03 18:12:49;;;;;;;5.93;4.57;;;;;;;;;;6207732;28;20042;-70
2022/04/03 18:15:51;;;;;;;8.30;5.10;;;;;;;;;;6200412;28;20047;-71
2022/04/03 18:18:53;;;;;;;8.38;5.05;;;;;;;;;;6204707;28;20062;-69
2022/04/03 18:22:00;;;;;;;5.78;4.97;;;;;;;;;;6208588;28;20103;-70
2022/04/03 18:25:48;;;;;;;7.15;5.40;;;;;;;;;;6207883;28;20133;-70
2022/04/03 18:28:49;;;;;;;6.45;4.70;;;;;;;;;;6207281;28;20133;-71